RYR4SV GCFV-LEMD
Flight info
| Callsign | RYR4SV |
|---|---|
| Flight time | 2h 7m |
| Altitude | 36000 |
| Route | VASTO UN858 AKUDA DCT PESAS N858 PARKA Z165 SOTUK |
| Aircraft | B738/M-SDE2E3FGHIRWXY/LB1 |
Departure
| Time | 2026-05-05 10:54 |
|---|---|
| Airport | Fuerteventura Airport (GCFV) |
Arrival
| Time | 2026-05-05 13:02 |
|---|---|
| Airport | Adolfo Suárez Madrid–Barajas Airport (LEMD) |
| Time | Latitude | Longitude | Altitude | Speed | Heading |
|---|---|---|---|---|---|
| 2026-05-05 10:43 | 28.45307 | -13.86657 | 75 ft | 0 kts | 270° |
| 2026-05-05 10:50 | 28.45306 | -13.86661 | 75 ft | 2 kts | 259° |
| 2026-05-05 10:50 | 28.45281 | -13.86694 | 73 ft | 9 kts | 216° |
| 2026-05-05 10:50 | 28.45212 | -13.86734 | 68 ft | 14 kts | 197° |
| 2026-05-05 10:50 | 28.45108 | -13.86714 | 62 ft | 18 kts | 122° |
| 2026-05-05 10:51 | 28.45080 | -13.86576 | 62 ft | 18 kts | 139° |
| 2026-05-05 10:51 | 28.44952 | -13.86575 | 66 ft | 21 kts | 184° |
| 2026-05-05 10:51 | 28.44790 | -13.86583 | 62 ft | 25 kts | 181° |
| 2026-05-05 10:51 | 28.44603 | -13.86588 | 57 ft | 29 kts | 181° |
| 2026-05-05 10:52 | 28.44394 | -13.86598 | 51 ft | 30 kts | 183° |
| 2026-05-05 10:52 | 28.44182 | -13.86604 | 45 ft | 30 kts | 181° |
| 2026-05-05 10:52 | 28.43972 | -13.86610 | 40 ft | 30 kts | 183° |
| 2026-05-05 10:52 | 28.43766 | -13.86618 | 35 ft | 29 kts | 181° |
| 2026-05-05 10:53 | 28.43570 | -13.86622 | 30 ft | 27 kts | 181° |
| 2026-05-05 10:53 | 28.43385 | -13.86623 | 25 ft | 26 kts | 162° |
| 2026-05-05 10:53 | 28.43402 | -13.86489 | 27 ft | 20 kts | 53° |
| 2026-05-05 10:53 | 28.43539 | -13.86432 | 29 ft | 37 kts | 2° |
| 2026-05-05 10:54 | 28.44087 | -13.86413 | 41 ft | 120 kts | 2° |
| 2026-05-05 10:54 | 28.45113 | -13.86387 | 364 ft | 163 kts | 3° |
| 2026-05-05 10:54 | 28.46227 | -13.86392 | 1561 ft | 161 kts | 0° |
| 2026-05-05 10:54 | 28.47318 | -13.86853 | 2725 ft | 169 kts | 342° |
| 2026-05-05 10:55 | 28.48432 | -13.86918 | 3543 ft | 172 kts | 25° |
| 2026-05-05 10:55 | 28.49513 | -13.86095 | 4011 ft | 201 kts | 38° |
| 2026-05-05 10:55 | 28.50700 | -13.85043 | 4237 ft | 230 kts | 36° |
| 2026-05-05 10:55 | 28.52035 | -13.83956 | 4714 ft | 244 kts | 34° |
| 2026-05-05 10:56 | 28.53523 | -13.82840 | 5004 ft | 267 kts | 31° |
| 2026-05-05 10:56 | 28.55147 | -13.81722 | 5614 ft | 278 kts | 29° |
| 2026-05-05 10:56 | 28.56839 | -13.80621 | 6448 ft | 283 kts | 27° |
| 2026-05-05 10:56 | 28.58591 | -13.79526 | 7200 ft | 289 kts | 26° |
| 2026-05-05 10:57 | 28.59775 | -13.78801 | 7747 ft | 291 kts | 26° |
| 2026-05-05 10:57 | 28.62196 | -13.77343 | 8782 ft | 298 kts | 25° |
| 2026-05-05 10:57 | 28.63423 | -13.76613 | 9273 ft | 303 kts | 25° |
| 2026-05-05 10:57 | 28.65943 | -13.75119 | 10261 ft | 311 kts | 24° |
| 2026-05-05 10:58 | 28.67925 | -13.73949 | 10585 ft | 333 kts | 24° |
| 2026-05-05 10:58 | 28.69328 | -13.73126 | 10724 ft | 349 kts | 23° |
| 2026-05-05 10:58 | 28.71564 | -13.71930 | 11247 ft | 359 kts | 20° |
| 2026-05-05 10:58 | 28.73870 | -13.70769 | 11922 ft | 365 kts | 20° |
| 2026-05-05 10:59 | 28.76214 | -13.69600 | 12634 ft | 369 kts | 19° |
| 2026-05-05 10:59 | 28.78586 | -13.68411 | 13332 ft | 375 kts | 19° |
| 2026-05-05 10:59 | 28.81003 | -13.67191 | 13988 ft | 381 kts | 19° |
| 2026-05-05 10:59 | 28.83414 | -13.65966 | 14576 ft | 387 kts | 19° |
| 2026-05-05 11:00 | 28.85898 | -13.64698 | 15223 ft | 392 kts | 19° |
| 2026-05-05 11:00 | 28.88412 | -13.63413 | 15863 ft | 397 kts | 19° |
| 2026-05-05 11:00 | 28.90949 | -13.62117 | 16492 ft | 402 kts | 18° |
| 2026-05-05 11:00 | 28.93560 | -13.61123 | 17062 ft | 397 kts | 2° |
| 2026-05-05 11:01 | 28.96282 | -13.60970 | 17702 ft | 387 kts | 347° |
| 2026-05-05 11:01 | 28.98866 | -13.61580 | 18381 ft | 375 kts | 332° |
| 2026-05-05 11:01 | 29.01346 | -13.62553 | 18934 ft | 377 kts | 331° |
| 2026-05-05 11:01 | 29.03842 | -13.63569 | 19507 ft | 381 kts | 330° |
| 2026-05-05 11:02 | 29.06357 | -13.64594 | 20081 ft | 384 kts | 331° |
| 2026-05-05 11:02 | 29.08864 | -13.65604 | 20620 ft | 388 kts | 331° |
| 2026-05-05 11:02 | 29.11440 | -13.66631 | 21158 ft | 392 kts | 330° |
| 2026-05-05 11:02 | 29.14039 | -13.67659 | 21683 ft | 396 kts | 330° |
| 2026-05-05 11:03 | 29.16630 | -13.68679 | 22190 ft | 400 kts | 330° |
| 2026-05-05 11:03 | 29.19284 | -13.69722 | 22722 ft | 404 kts | 330° |
| 2026-05-05 11:03 | 29.21963 | -13.70774 | 23221 ft | 408 kts | 330° |
| 2026-05-05 11:03 | 29.24664 | -13.71836 | 23715 ft | 411 kts | 330° |
| 2026-05-05 11:04 | 29.27382 | -13.72905 | 24155 ft | 414 kts | 330° |
| 2026-05-05 11:04 | 29.30115 | -13.73980 | 24614 ft | 415 kts | 329° |
| 2026-05-05 11:04 | 29.32843 | -13.75013 | 25071 ft | 423 kts | 334° |
| 2026-05-05 11:04 | 29.35808 | -13.75618 | 25506 ft | 439 kts | 345° |
| 2026-05-05 11:05 | 29.38933 | -13.75625 | 25938 ft | 456 kts | 356° |
| 2026-05-05 11:05 | 29.42116 | -13.75180 | 26352 ft | 462 kts | 359° |
| 2026-05-05 11:05 | 29.45287 | -13.74638 | 26734 ft | 466 kts | 359° |
| 2026-05-05 11:05 | 29.48512 | -13.74060 | 27111 ft | 470 kts | 359° |
| 2026-05-05 11:06 | 29.51764 | -13.73481 | 27493 ft | 472 kts | 359° |
| 2026-05-05 11:06 | 29.55025 | -13.72917 | 27878 ft | 474 kts | 359° |
| 2026-05-05 11:06 | 29.58258 | -13.72375 | 28255 ft | 476 kts | 358° |
| 2026-05-05 11:06 | 29.61552 | -13.71835 | 28623 ft | 478 kts | 358° |
| 2026-05-05 11:07 | 29.64869 | -13.71298 | 28970 ft | 481 kts | 358° |
| 2026-05-05 11:07 | 29.68207 | -13.70758 | 29324 ft | 483 kts | 358° |
| 2026-05-05 11:07 | 29.71509 | -13.70227 | 29667 ft | 486 kts | 358° |
| 2026-05-05 11:07 | 29.74872 | -13.69685 | 29999 ft | 488 kts | 358° |
| 2026-05-05 11:08 | 29.78253 | -13.69140 | 30284 ft | 491 kts | 358° |
| 2026-05-05 11:08 | 29.81658 | -13.68591 | 30561 ft | 493 kts | 358° |
| 2026-05-05 11:08 | 29.85058 | -13.68042 | 30855 ft | 494 kts | 358° |
| 2026-05-05 11:08 | 29.88475 | -13.67488 | 31168 ft | 495 kts | 358° |
| 2026-05-05 11:09 | 29.91881 | -13.66933 | 31557 ft | 493 kts | 358° |
| 2026-05-05 11:09 | 29.95234 | -13.66385 | 31974 ft | 491 kts | 358° |
| 2026-05-05 11:09 | 29.98621 | -13.65833 | 32371 ft | 490 kts | 358° |
| 2026-05-05 11:09 | 30.02005 | -13.65283 | 32731 ft | 489 kts | 357° |
| 2026-05-05 11:10 | 30.05377 | -13.64736 | 33054 ft | 489 kts | 357° |
| 2026-05-05 11:10 | 30.08709 | -13.64195 | 33402 ft | 488 kts | 356° |
| 2026-05-05 11:10 | 30.12078 | -13.63646 | 33764 ft | 487 kts | 356° |
| 2026-05-05 11:10 | 30.15436 | -13.63099 | 34117 ft | 486 kts | 356° |
| 2026-05-05 11:11 | 30.18793 | -13.62552 | 34399 ft | 485 kts | 356° |
| 2026-05-05 11:11 | 30.22099 | -13.62012 | 34655 ft | 485 kts | 356° |
| 2026-05-05 11:11 | 30.25453 | -13.61465 | 34930 ft | 484 kts | 356° |
| 2026-05-05 11:11 | 30.28762 | -13.60925 | 35208 ft | 483 kts | 356° |
| 2026-05-05 11:12 | 30.32093 | -13.60380 | 35536 ft | 481 kts | 356° |
| 2026-05-05 11:12 | 30.35406 | -13.59837 | 35847 ft | 479 kts | 356° |
| 2026-05-05 11:12 | 30.38712 | -13.59296 | 36108 ft | 478 kts | 356° |
| 2026-05-05 11:13 | 30.45333 | -13.58218 | 36112 ft | 484 kts | 356° |
| 2026-05-05 11:13 | 30.48678 | -13.57475 | 36094 ft | 495 kts | 5° |
| 2026-05-05 11:13 | 30.51956 | -13.56139 | 36108 ft | 503 kts | 14° |
| 2026-05-05 11:13 | 30.55072 | -13.54222 | 36091 ft | 510 kts | 25° |
| 2026-05-05 11:14 | 30.57987 | -13.51933 | 36115 ft | 510 kts | 27° |
| 2026-05-05 11:14 | 30.63778 | -13.47154 | 36102 ft | 508 kts | 28° |
| 2026-05-05 11:15 | 30.69557 | -13.42441 | 36108 ft | 506 kts | 27° |
| 2026-05-05 11:15 | 30.75336 | -13.37813 | 36110 ft | 506 kts | 27° |
| 2026-05-05 11:16 | 30.81122 | -13.33195 | 36117 ft | 507 kts | 27° |
| 2026-05-05 11:16 | 30.86951 | -13.28529 | 36119 ft | 509 kts | 27° |
| 2026-05-05 11:17 | 30.92812 | -13.23832 | 36115 ft | 511 kts | 27° |
| 2026-05-05 11:17 | 30.98675 | -13.19176 | 36113 ft | 512 kts | 27° |
| 2026-05-05 11:18 | 31.04578 | -13.14496 | 36114 ft | 513 kts | 27° |
| 2026-05-05 11:18 | 31.10485 | -13.09797 | 36114 ft | 513 kts | 27° |
| 2026-05-05 11:19 | 31.16384 | -13.05092 | 36110 ft | 511 kts | 27° |
| 2026-05-05 11:19 | 31.22222 | -13.00428 | 36108 ft | 509 kts | 28° |
| 2026-05-05 11:20 | 31.28063 | -12.95754 | 36110 ft | 506 kts | 28° |
| 2026-05-05 11:20 | 31.33868 | -12.91104 | 36108 ft | 503 kts | 28° |
| 2026-05-05 11:21 | 31.39603 | -12.86503 | 36110 ft | 500 kts | 28° |
| 2026-05-05 11:21 | 31.45351 | -12.81884 | 36112 ft | 498 kts | 28° |
| 2026-05-05 11:22 | 31.51062 | -12.77289 | 36112 ft | 497 kts | 28° |
| 2026-05-05 11:22 | 31.56721 | -12.72728 | 36122 ft | 496 kts | 28° |
| 2026-05-05 11:23 | 31.62409 | -12.68139 | 36115 ft | 495 kts | 28° |
| 2026-05-05 11:23 | 31.68065 | -12.63567 | 36116 ft | 495 kts | 28° |
| 2026-05-05 11:24 | 31.73754 | -12.58961 | 36125 ft | 496 kts | 28° |
| 2026-05-05 11:24 | 31.79414 | -12.54370 | 36114 ft | 496 kts | 28° |
| 2026-05-05 11:25 | 31.85118 | -12.49737 | 36120 ft | 497 kts | 28° |
| 2026-05-05 11:25 | 31.90787 | -12.45127 | 36121 ft | 497 kts | 29° |
| 2026-05-05 11:26 | 31.96489 | -12.40483 | 36124 ft | 497 kts | 29° |
| 2026-05-05 11:26 | 32.02152 | -12.35873 | 36115 ft | 497 kts | 29° |
| 2026-05-05 11:27 | 32.07858 | -12.31230 | 36117 ft | 497 kts | 29° |
| 2026-05-05 11:27 | 32.13542 | -12.26598 | 36118 ft | 496 kts | 29° |
| 2026-05-05 11:28 | 32.19195 | -12.21981 | 36118 ft | 495 kts | 29° |
| 2026-05-05 11:28 | 32.24862 | -12.17344 | 36121 ft | 494 kts | 29° |
| 2026-05-05 11:29 | 32.30522 | -12.12707 | 36119 ft | 493 kts | 30° |
| 2026-05-05 11:29 | 32.36123 | -12.08111 | 36121 ft | 491 kts | 30° |
| 2026-05-05 11:30 | 32.41733 | -12.03499 | 36118 ft | 489 kts | 30° |
| 2026-05-05 11:30 | 32.47320 | -11.98900 | 36116 ft | 487 kts | 30° |
| 2026-05-05 11:31 | 32.52843 | -11.94347 | 36116 ft | 485 kts | 30° |
| 2026-05-05 11:31 | 32.58352 | -11.89799 | 36120 ft | 483 kts | 30° |
| 2026-05-05 11:32 | 32.63865 | -11.85241 | 36120 ft | 481 kts | 30° |
| 2026-05-05 11:32 | 32.69320 | -11.80723 | 36123 ft | 479 kts | 31° |
| 2026-05-05 11:33 | 32.74798 | -11.76180 | 36123 ft | 477 kts | 31° |
| 2026-05-05 11:33 | 32.80244 | -11.71655 | 36123 ft | 476 kts | 31° |
| 2026-05-05 11:34 | 32.85647 | -11.67161 | 36124 ft | 474 kts | 31° |
| 2026-05-05 11:34 | 32.91054 | -11.62655 | 36117 ft | 473 kts | 31° |
| 2026-05-05 11:35 | 32.96439 | -11.58161 | 36122 ft | 471 kts | 31° |
| 2026-05-05 11:35 | 33.01778 | -11.53699 | 36123 ft | 470 kts | 31° |
| 2026-05-05 11:36 | 33.07135 | -11.49215 | 36122 ft | 469 kts | 31° |
| 2026-05-05 11:36 | 33.12482 | -11.44731 | 36129 ft | 468 kts | 32° |
| 2026-05-05 11:37 | 33.17782 | -11.40282 | 36119 ft | 468 kts | 32° |
| 2026-05-05 11:37 | 33.23105 | -11.35786 | 36124 ft | 467 kts | 32° |
| 2026-05-05 11:38 | 33.28379 | -11.31311 | 36131 ft | 466 kts | 32° |
| 2026-05-05 11:38 | 33.33677 | -11.26811 | 36129 ft | 465 kts | 32° |
| 2026-05-05 11:39 | 33.38930 | -11.22343 | 36130 ft | 464 kts | 32° |
| 2026-05-05 11:39 | 33.43316 | -11.18609 | 36128 ft | 464 kts | 32° |
| 2026-05-05 11:40 | 33.49442 | -11.13385 | 36127 ft | 463 kts | 32° |
| 2026-05-05 11:40 | 33.53813 | -11.09652 | 36128 ft | 463 kts | 33° |
| 2026-05-05 11:41 | 33.59073 | -11.05153 | 36124 ft | 462 kts | 33° |
| 2026-05-05 11:41 | 33.64283 | -11.00691 | 36130 ft | 462 kts | 33° |
| 2026-05-05 11:42 | 33.69527 | -10.96193 | 36130 ft | 462 kts | 33° |
| 2026-05-05 11:42 | 33.74724 | -10.91727 | 36126 ft | 461 kts | 33° |
| 2026-05-05 11:43 | 33.79959 | -10.87223 | 36129 ft | 461 kts | 33° |
| 2026-05-05 11:43 | 33.85162 | -10.82739 | 36130 ft | 461 kts | 33° |
| 2026-05-05 11:44 | 33.90376 | -10.78239 | 36129 ft | 461 kts | 33° |
| 2026-05-05 11:44 | 33.95572 | -10.73747 | 36131 ft | 461 kts | 33° |
| 2026-05-05 11:45 | 34.00800 | -10.69221 | 36132 ft | 461 kts | 33° |
| 2026-05-05 11:45 | 34.05990 | -10.64720 | 36130 ft | 461 kts | 33° |
| 2026-05-05 11:46 | 34.11209 | -10.60188 | 36131 ft | 461 kts | 33° |
| 2026-05-05 11:46 | 34.16403 | -10.55671 | 36135 ft | 461 kts | 33° |
| 2026-05-05 11:47 | 34.21628 | -10.51118 | 36137 ft | 462 kts | 33° |
| 2026-05-05 11:47 | 34.26812 | -10.46595 | 36133 ft | 462 kts | 33° |
| 2026-05-05 11:48 | 34.34652 | -10.39741 | 36136 ft | 462 kts | 33° |
| 2026-05-05 11:48 | 34.39852 | -10.35186 | 36131 ft | 463 kts | 33° |
| 2026-05-05 11:49 | 34.45057 | -10.30619 | 36135 ft | 463 kts | 33° |
| 2026-05-05 11:49 | 34.50285 | -10.26025 | 36136 ft | 463 kts | 33° |
| 2026-05-05 11:50 | 34.55489 | -10.21443 | 36133 ft | 463 kts | 33° |
| 2026-05-05 11:50 | 34.60724 | -10.16829 | 36134 ft | 463 kts | 33° |
| 2026-05-05 11:51 | 34.65921 | -10.12253 | 36136 ft | 463 kts | 33° |
| 2026-05-05 11:51 | 34.71165 | -10.07647 | 36134 ft | 463 kts | 33° |
| 2026-05-05 11:52 | 34.76396 | -10.03046 | 36136 ft | 463 kts | 33° |
| 2026-05-05 11:52 | 34.81604 | -9.98454 | 36134 ft | 463 kts | 33° |
| 2026-05-05 11:53 | 34.86792 | -9.93870 | 36133 ft | 463 kts | 33° |
| 2026-05-05 11:53 | 34.92028 | -9.89237 | 36140 ft | 463 kts | 33° |
| 2026-05-05 11:54 | 34.97210 | -9.84644 | 36135 ft | 463 kts | 33° |
| 2026-05-05 11:54 | 35.02428 | -9.80012 | 36138 ft | 462 kts | 33° |
| 2026-05-05 11:55 | 35.07612 | -9.75402 | 36138 ft | 462 kts | 33° |
| 2026-05-05 11:55 | 35.12820 | -9.70765 | 36135 ft | 462 kts | 33° |
| 2026-05-05 11:56 | 35.18027 | -9.66117 | 36134 ft | 462 kts | 33° |
| 2026-05-05 11:56 | 35.23203 | -9.61494 | 36131 ft | 462 kts | 33° |
| 2026-05-05 11:57 | 35.28401 | -9.56844 | 36131 ft | 462 kts | 33° |
| 2026-05-05 11:57 | 35.33608 | -9.52176 | 36130 ft | 463 kts | 33° |
| 2026-05-05 11:58 | 35.38775 | -9.47537 | 36132 ft | 463 kts | 33° |
| 2026-05-05 11:58 | 35.43980 | -9.42855 | 36130 ft | 463 kts | 33° |
| 2026-05-05 11:59 | 35.49186 | -9.38166 | 36128 ft | 463 kts | 33° |
| 2026-05-05 11:59 | 35.54359 | -9.33498 | 36130 ft | 464 kts | 33° |
| 2026-05-05 12:00 | 35.59568 | -9.28790 | 36127 ft | 464 kts | 33° |
| 2026-05-05 12:00 | 35.64767 | -9.24085 | 36128 ft | 464 kts | 33° |
| 2026-05-05 12:01 | 35.69970 | -9.19366 | 36132 ft | 465 kts | 33° |
| 2026-05-05 12:01 | 35.75145 | -9.14667 | 36129 ft | 465 kts | 33° |
| 2026-05-05 12:02 | 35.80361 | -9.09921 | 36126 ft | 465 kts | 33° |
| 2026-05-05 12:02 | 35.85567 | -9.05176 | 36124 ft | 466 kts | 33° |
| 2026-05-05 12:03 | 35.90790 | -9.00407 | 36131 ft | 466 kts | 33° |
| 2026-05-05 12:03 | 35.95992 | -8.95611 | 36128 ft | 468 kts | 36° |
| 2026-05-05 12:04 | 36.00535 | -8.89803 | 36137 ft | 472 kts | 47° |
| 2026-05-05 12:04 | 36.04750 | -8.83622 | 36127 ft | 472 kts | 47° |
| 2026-05-05 12:05 | 36.08984 | -8.77415 | 36124 ft | 473 kts | 47° |
| 2026-05-05 12:05 | 36.13272 | -8.71204 | 36123 ft | 473 kts | 47° |
| 2026-05-05 12:06 | 36.17538 | -8.65050 | 36120 ft | 473 kts | 46° |
| 2026-05-05 12:06 | 36.21828 | -8.58858 | 36122 ft | 473 kts | 46° |
| 2026-05-05 12:07 | 36.26123 | -8.52643 | 36119 ft | 474 kts | 47° |
| 2026-05-05 12:07 | 36.30409 | -8.46427 | 36114 ft | 474 kts | 47° |
| 2026-05-05 12:08 | 36.34698 | -8.40196 | 36119 ft | 474 kts | 47° |
| 2026-05-05 12:08 | 36.38955 | -8.33999 | 36107 ft | 475 kts | 46° |
| 2026-05-05 12:09 | 36.43247 | -8.27740 | 36115 ft | 475 kts | 47° |
| 2026-05-05 12:09 | 36.47518 | -8.21499 | 36118 ft | 475 kts | 47° |
| 2026-05-05 12:10 | 36.51810 | -8.15216 | 36116 ft | 476 kts | 47° |
| 2026-05-05 12:10 | 36.56082 | -8.08951 | 36112 ft | 476 kts | 46° |
| 2026-05-05 12:11 | 36.60339 | -8.02695 | 36107 ft | 476 kts | 47° |
| 2026-05-05 12:11 | 36.64633 | -7.96375 | 36094 ft | 477 kts | 46° |
| 2026-05-05 12:12 | 36.68919 | -7.90053 | 36092 ft | 477 kts | 46° |
| 2026-05-05 12:12 | 36.73183 | -7.83752 | 36085 ft | 477 kts | 46° |
| 2026-05-05 12:13 | 36.77470 | -7.77405 | 36090 ft | 478 kts | 47° |
| 2026-05-05 12:13 | 36.81762 | -7.71039 | 36086 ft | 478 kts | 46° |
| 2026-05-05 12:14 | 36.86032 | -7.64693 | 36083 ft | 478 kts | 46° |
| 2026-05-05 12:14 | 36.90314 | -7.58317 | 36079 ft | 479 kts | 46° |
| 2026-05-05 12:15 | 36.94570 | -7.51967 | 36079 ft | 479 kts | 46° |
| 2026-05-05 12:15 | 36.98850 | -7.45568 | 36075 ft | 479 kts | 46° |
| 2026-05-05 12:16 | 37.03135 | -7.39151 | 36073 ft | 479 kts | 46° |
| 2026-05-05 12:16 | 37.07417 | -7.32757 | 36070 ft | 479 kts | 46° |
| 2026-05-05 12:17 | 37.11710 | -7.26363 | 36064 ft | 479 kts | 46° |
| 2026-05-05 12:17 | 37.15979 | -7.19985 | 36064 ft | 479 kts | 46° |
| 2026-05-05 12:18 | 37.20276 | -7.13562 | 36059 ft | 479 kts | 46° |
| 2026-05-05 12:18 | 37.24571 | -7.07146 | 36056 ft | 480 kts | 46° |
| 2026-05-05 12:19 | 37.28844 | -7.00748 | 36063 ft | 480 kts | 46° |
| 2026-05-05 12:19 | 37.33132 | -6.94313 | 36053 ft | 481 kts | 46° |
| 2026-05-05 12:20 | 37.36706 | -6.88937 | 36055 ft | 481 kts | 46° |
| 2026-05-05 12:20 | 37.41717 | -6.81387 | 36054 ft | 482 kts | 46° |
| 2026-05-05 12:21 | 37.45288 | -6.75995 | 36043 ft | 482 kts | 46° |
| 2026-05-05 12:21 | 37.49581 | -6.69502 | 36046 ft | 483 kts | 46° |
| 2026-05-05 12:22 | 37.53883 | -6.62983 | 36042 ft | 483 kts | 46° |
| 2026-05-05 12:22 | 37.58186 | -6.56448 | 36038 ft | 484 kts | 46° |
| 2026-05-05 12:23 | 37.62473 | -6.49926 | 36041 ft | 485 kts | 46° |
| 2026-05-05 12:23 | 37.66783 | -6.43355 | 36038 ft | 486 kts | 46° |
| 2026-05-05 12:24 | 37.71077 | -6.36794 | 36031 ft | 486 kts | 46° |
| 2026-05-05 12:24 | 37.75385 | -6.30199 | 36035 ft | 486 kts | 46° |
| 2026-05-05 12:25 | 37.79701 | -6.23580 | 36036 ft | 487 kts | 46° |
| 2026-05-05 12:25 | 37.84007 | -6.16960 | 36026 ft | 488 kts | 46° |
| 2026-05-05 12:26 | 37.88296 | -6.10354 | 36039 ft | 488 kts | 46° |
| 2026-05-05 12:26 | 37.92621 | -6.03681 | 36026 ft | 488 kts | 46° |
| 2026-05-05 12:27 | 37.97478 | -5.97832 | 36022 ft | 475 kts | 27° |
| 2026-05-05 12:27 | 38.03007 | -5.93418 | 36031 ft | 472 kts | 24° |
| 2026-05-05 12:28 | 38.08620 | -5.89038 | 36035 ft | 473 kts | 25° |
| 2026-05-05 12:28 | 38.14179 | -5.84618 | 36027 ft | 475 kts | 25° |
| 2026-05-05 12:29 | 38.19756 | -5.80131 | 36038 ft | 475 kts | 25° |
| 2026-05-05 12:29 | 38.25348 | -5.75613 | 36031 ft | 476 kts | 25° |
| 2026-05-05 12:30 | 38.30957 | -5.71076 | 36035 ft | 477 kts | 25° |
| 2026-05-05 12:30 | 38.36525 | -5.66565 | 36032 ft | 477 kts | 25° |
| 2026-05-05 12:31 | 38.42144 | -5.62005 | 36030 ft | 476 kts | 25° |
| 2026-05-05 12:31 | 38.47691 | -5.57489 | 36024 ft | 469 kts | 25° |
| 2026-05-05 12:32 | 38.53160 | -5.53037 | 35959 ft | 469 kts | 25° |
| 2026-05-05 12:32 | 38.55919 | -5.50790 | 35602 ft | 469 kts | 25° |
| 2026-05-05 12:32 | 38.58657 | -5.48552 | 35238 ft | 464 kts | 25° |
| 2026-05-05 12:33 | 38.61372 | -5.46337 | 34829 ft | 461 kts | 24° |
| 2026-05-05 12:33 | 38.64046 | -5.44175 | 34420 ft | 459 kts | 24° |
| 2026-05-05 12:33 | 38.66753 | -5.41991 | 34023 ft | 457 kts | 23° |
| 2026-05-05 12:33 | 38.69443 | -5.39824 | 33569 ft | 455 kts | 23° |
| 2026-05-05 12:34 | 38.72114 | -5.37667 | 33175 ft | 452 kts | 23° |
| 2026-05-05 12:34 | 38.74775 | -5.35514 | 32781 ft | 449 kts | 23° |
| 2026-05-05 12:34 | 38.77372 | -5.33410 | 32403 ft | 446 kts | 23° |
| 2026-05-05 12:34 | 38.79985 | -5.31291 | 32017 ft | 442 kts | 23° |
| 2026-05-05 12:35 | 38.82589 | -5.29177 | 31657 ft | 439 kts | 23° |
| 2026-05-05 12:35 | 38.85167 | -5.27084 | 31294 ft | 437 kts | 23° |
| 2026-05-05 12:35 | 38.87727 | -5.25002 | 30929 ft | 434 kts | 23° |
| 2026-05-05 12:35 | 38.90273 | -5.22931 | 30570 ft | 431 kts | 23° |
| 2026-05-05 12:36 | 38.92812 | -5.20864 | 30203 ft | 429 kts | 23° |
| 2026-05-05 12:36 | 38.95288 | -5.18846 | 29805 ft | 427 kts | 23° |
| 2026-05-05 12:36 | 38.97772 | -5.16755 | 29381 ft | 429 kts | 28° |
| 2026-05-05 12:36 | 39.00041 | -5.14197 | 28977 ft | 435 kts | 39° |
| 2026-05-05 12:37 | 39.01971 | -5.11180 | 28680 ft | 439 kts | 50° |
| 2026-05-05 12:37 | 39.03605 | -5.07878 | 28304 ft | 438 kts | 52° |
| 2026-05-05 12:37 | 39.05180 | -5.04514 | 27916 ft | 436 kts | 53° |
| 2026-05-05 12:37 | 39.06732 | -5.01171 | 27535 ft | 433 kts | 52° |
| 2026-05-05 12:38 | 39.08269 | -4.97888 | 27153 ft | 431 kts | 52° |
| 2026-05-05 12:38 | 39.09826 | -4.94602 | 26778 ft | 428 kts | 51° |
| 2026-05-05 12:38 | 39.11383 | -4.91342 | 26414 ft | 426 kts | 51° |
| 2026-05-05 12:38 | 39.12938 | -4.88101 | 26035 ft | 424 kts | 51° |
| 2026-05-05 12:39 | 39.14484 | -4.84876 | 25667 ft | 422 kts | 51° |
| 2026-05-05 12:39 | 39.16025 | -4.81664 | 25305 ft | 420 kts | 51° |
| 2026-05-05 12:39 | 39.17544 | -4.78489 | 24919 ft | 419 kts | 51° |
| 2026-05-05 12:39 | 39.19080 | -4.75283 | 24544 ft | 417 kts | 49° |
| 2026-05-05 12:40 | 39.20844 | -4.72431 | 24186 ft | 403 kts | 37° |
| 2026-05-05 12:40 | 39.22799 | -4.69880 | 23873 ft | 398 kts | 34° |
| 2026-05-05 12:40 | 39.24796 | -4.67388 | 23457 ft | 396 kts | 34° |
| 2026-05-05 12:40 | 39.26777 | -4.64923 | 23072 ft | 394 kts | 34° |
| 2026-05-05 12:41 | 39.28729 | -4.62468 | 22695 ft | 392 kts | 35° |
| 2026-05-05 12:41 | 39.30652 | -4.60019 | 22330 ft | 390 kts | 36° |
| 2026-05-05 12:41 | 39.32563 | -4.57562 | 21969 ft | 387 kts | 36° |
| 2026-05-05 12:41 | 39.34464 | -4.55102 | 21616 ft | 386 kts | 37° |
| 2026-05-05 12:42 | 39.36354 | -4.52649 | 21251 ft | 384 kts | 37° |
| 2026-05-05 12:42 | 39.38235 | -4.50204 | 20891 ft | 382 kts | 37° |
| 2026-05-05 12:42 | 39.40103 | -4.47773 | 20541 ft | 379 kts | 38° |
| 2026-05-05 12:42 | 39.41936 | -4.45386 | 20203 ft | 377 kts | 38° |
| 2026-05-05 12:43 | 39.43808 | -4.42946 | 19840 ft | 375 kts | 38° |
| 2026-05-05 12:43 | 39.45647 | -4.40548 | 19496 ft | 373 kts | 39° |
| 2026-05-05 12:43 | 39.47451 | -4.38194 | 19153 ft | 371 kts | 39° |
| 2026-05-05 12:43 | 39.49265 | -4.35825 | 18802 ft | 369 kts | 39° |
| 2026-05-05 12:44 | 39.51073 | -4.33462 | 18463 ft | 367 kts | 40° |
| 2026-05-05 12:44 | 39.52845 | -4.31143 | 18105 ft | 365 kts | 40° |
| 2026-05-05 12:44 | 39.54623 | -4.28815 | 17742 ft | 362 kts | 40° |
| 2026-05-05 12:44 | 39.56387 | -4.26502 | 17389 ft | 359 kts | 40° |
| 2026-05-05 12:45 | 39.58138 | -4.24207 | 17050 ft | 356 kts | 40° |
| 2026-05-05 12:45 | 39.59877 | -4.21924 | 16695 ft | 354 kts | 40° |
| 2026-05-05 12:45 | 39.61599 | -4.19663 | 16350 ft | 351 kts | 40° |
| 2026-05-05 12:45 | 39.63312 | -4.17412 | 16014 ft | 348 kts | 41° |
| 2026-05-05 12:46 | 39.65006 | -4.15185 | 15685 ft | 345 kts | 41° |
| 2026-05-05 12:46 | 39.66689 | -4.12970 | 15353 ft | 343 kts | 41° |
| 2026-05-05 12:46 | 39.68359 | -4.10771 | 15029 ft | 340 kts | 41° |
| 2026-05-05 12:46 | 39.70011 | -4.08594 | 14722 ft | 337 kts | 41° |
| 2026-05-05 12:47 | 39.71645 | -4.06438 | 14430 ft | 334 kts | 41° |
| 2026-05-05 12:47 | 39.73269 | -4.04294 | 14140 ft | 331 kts | 41° |
| 2026-05-05 12:47 | 39.74877 | -4.02170 | 13832 ft | 329 kts | 41° |
| 2026-05-05 12:47 | 39.76474 | -4.00061 | 13519 ft | 326 kts | 42° |
| 2026-05-05 12:48 | 39.78053 | -3.97969 | 13201 ft | 323 kts | 42° |
| 2026-05-05 12:48 | 39.79602 | -3.95915 | 12903 ft | 319 kts | 43° |
| 2026-05-05 12:48 | 39.81151 | -3.93863 | 12620 ft | 316 kts | 42° |
| 2026-05-05 12:48 | 39.82685 | -3.91835 | 12345 ft | 312 kts | 42° |
| 2026-05-05 12:49 | 39.84198 | -3.89828 | 12067 ft | 308 kts | 43° |
| 2026-05-05 12:49 | 39.85694 | -3.87839 | 11811 ft | 304 kts | 43° |
| 2026-05-05 12:49 | 39.87168 | -3.85883 | 11548 ft | 302 kts | 43° |
| 2026-05-05 12:49 | 39.88636 | -3.83936 | 11276 ft | 299 kts | 43° |
| 2026-05-05 12:50 | 39.90067 | -3.82035 | 11008 ft | 296 kts | 43° |
| 2026-05-05 12:50 | 39.91508 | -3.80119 | 10757 ft | 294 kts | 43° |
| 2026-05-05 12:50 | 39.92935 | -3.78219 | 10498 ft | 292 kts | 43° |
| 2026-05-05 12:50 | 39.94355 | -3.76327 | 10231 ft | 290 kts | 43° |
| 2026-05-05 12:51 | 39.95764 | -3.74446 | 9976 ft | 289 kts | 43° |
| 2026-05-05 12:51 | 39.97169 | -3.72570 | 9700 ft | 288 kts | 43° |
| 2026-05-05 12:51 | 39.98565 | -3.70708 | 9416 ft | 286 kts | 43° |
| 2026-05-05 12:51 | 39.99950 | -3.68858 | 9158 ft | 283 kts | 44° |
| 2026-05-05 12:52 | 40.01304 | -3.67044 | 8903 ft | 281 kts | 43° |
| 2026-05-05 12:52 | 40.02667 | -3.65222 | 8636 ft | 279 kts | 43° |
| 2026-05-05 12:52 | 40.04018 | -3.63412 | 8395 ft | 277 kts | 43° |
| 2026-05-05 12:52 | 40.05361 | -3.61612 | 8152 ft | 274 kts | 43° |
| 2026-05-05 12:53 | 40.06690 | -3.59829 | 7913 ft | 273 kts | 44° |
| 2026-05-05 12:53 | 40.08013 | -3.58056 | 7658 ft | 271 kts | 43° |
| 2026-05-05 12:53 | 40.09306 | -3.56322 | 7419 ft | 269 kts | 43° |
| 2026-05-05 12:53 | 40.10607 | -3.54577 | 7176 ft | 267 kts | 43° |
| 2026-05-05 12:54 | 40.13184 | -3.51124 | 6725 ft | 263 kts | 43° |
| 2026-05-05 12:54 | 40.14445 | -3.49429 | 6491 ft | 263 kts | 43° |
| 2026-05-05 12:54 | 40.15734 | -3.47694 | 6266 ft | 263 kts | 43° |
| 2026-05-05 12:55 | 40.17002 | -3.45993 | 5971 ft | 265 kts | 42° |
| 2026-05-05 12:55 | 40.18318 | -3.44382 | 5633 ft | 269 kts | 39° |
| 2026-05-05 12:55 | 40.19729 | -3.42734 | 5297 ft | 273 kts | 39° |
| 2026-05-05 12:55 | 40.21193 | -3.41116 | 4913 ft | 275 kts | 32° |
| 2026-05-05 12:56 | 40.22839 | -3.39823 | 4515 ft | 276 kts | 26° |
| 2026-05-05 12:56 | 40.24534 | -3.38698 | 4113 ft | 276 kts | 15° |
| 2026-05-05 12:56 | 40.26408 | -3.38382 | 4019 ft | 261 kts | 354° |
| 2026-05-05 12:56 | 40.28140 | -3.38601 | 4002 ft | 247 kts | 348° |
| 2026-05-05 12:57 | 40.29784 | -3.39021 | 3981 ft | 234 kts | 332° |
| 2026-05-05 12:57 | 40.31113 | -3.40047 | 4013 ft | 214 kts | 323° |
| 2026-05-05 12:57 | 40.32293 | -3.41119 | 3993 ft | 198 kts | 320° |
| 2026-05-05 12:57 | 40.33366 | -3.42177 | 3998 ft | 190 kts | 319° |
| 2026-05-05 12:58 | 40.34405 | -3.43237 | 4002 ft | 187 kts | 318° |
| 2026-05-05 12:58 | 40.35402 | -3.44256 | 3989 ft | 179 kts | 318° |
| 2026-05-05 12:58 | 40.36371 | -3.45243 | 3985 ft | 175 kts | 317° |
| 2026-05-05 12:58 | 40.37327 | -3.46225 | 4011 ft | 172 kts | 317° |
| 2026-05-05 12:59 | 40.38252 | -3.47168 | 3964 ft | 166 kts | 318° |
| 2026-05-05 12:59 | 40.39179 | -3.48113 | 3754 ft | 170 kts | 319° |
| 2026-05-05 12:59 | 40.40093 | -3.49045 | 3550 ft | 160 kts | 319° |
| 2026-05-05 13:00 | 40.41709 | -3.50695 | 3143 ft | 140 kts | 317° |
| 2026-05-05 13:00 | 40.42497 | -3.51504 | 2936 ft | 145 kts | 319° |
| 2026-05-05 13:01 | 40.44932 | -3.53937 | 2307 ft | 148 kts | 314° |
| 2026-05-05 13:01 | 40.45743 | -3.54795 | 2142 ft | 153 kts | 320° |
| 2026-05-05 13:01 | 40.46557 | -3.55630 | 1976 ft | 146 kts | 320° |
| 2026-05-05 13:01 | 40.47278 | -3.56367 | 1971 ft | 115 kts | 321° |
| 2026-05-05 13:02 | 40.47792 | -3.56890 | 1984 ft | 71 kts | 323° |
| 2026-05-05 13:02 | 40.48012 | -3.57200 | 1989 ft | 28 kts | 240° |
| 2026-05-05 13:02 | 40.47930 | -3.57330 | 1991 ft | 17 kts | 232° |
| 2026-05-05 13:02 | 40.47860 | -3.57450 | 1991 ft | 16 kts | 231° |
| 2026-05-05 13:03 | 40.47794 | -3.57476 | 1990 ft | 16 kts | 162° |
| 2026-05-05 13:03 | 40.47678 | -3.57367 | 1987 ft | 15 kts | 142° |
| 2026-05-05 13:03 | 40.47596 | -3.57285 | 1986 ft | 14 kts | 142° |
| 2026-05-05 13:03 | 40.47546 | -3.57230 | 1985 ft | 14 kts | 134° |
| 2026-05-05 13:04 | 40.47433 | -3.57172 | 1982 ft | 13 kts | 187° |
| 2026-05-05 13:04 | 40.47373 | -3.57185 | 1980 ft | 13 kts | 191° |
| 2026-05-05 13:04 | 40.47327 | -3.57129 | 1981 ft | 0 kts | 152° |